CheckWX is a tool to help pilots better visualize weather data.  It is not intended as a substitute for an official pre-flight weather briefing.

08:36:06 UTC

KDBN METAR
W H 'bud' Barron Airport
Dublin, Georgia, USA
Current

21 mins ago

KDBN 190815Z AUTO 15003KT 20/18 A3003 RMK AO2 PWINO
Observed
May-19 @ 08:15 UTC
Wind
  • 150° at 3 KTS
Visibility
Temperature
20°C / 68°F
Dewpoint
18°C / 64°F
Humidity
88%
Altimeter
30.03" Hg
Pressure
1016.92 hPa
Previous

41 mins ago

KDBN 190755Z AUTO 13003KT 10SM CLR 20/18 A3003 RMK AO2 PWINO
Observed
May-19 @ 07:55 UTC
Wind
  • 130° at 3 KTS
Visibility
10 SM
Flight Rules
VFR
Cloud Levels
  • Clear skies
Temperature
20°C / 68°F
Dewpoint
18°C / 64°F
Humidity
88%
Altimeter
30.03" Hg
Pressure
1016.92 hPa
Previous

1 hour ago

KDBN 190730Z AUTO 13003KT 20/18 A3003 RMK AO2 PWINO
Observed
May-19 @ 07:30 UTC
Wind
  • 130° at 3 KTS
Visibility
Temperature
20°C / 68°F
Dewpoint
18°C / 64°F
Humidity
88%
Altimeter
30.03" Hg
Pressure
1016.92 hPa